Island Breeze — WDA3596 — position and weather

sailwx.info

Track history (hours):
 
Tides and Currents Weather Stations Pressure Air Temp Water Temp Dewpoint Dewpoint Depression Visibility Wind Speed Wind Dir Waves Ship Positions

Island Breeze

Owner: Island Tug & Barge Co., Seattle, WA. More information available from US FCC via Universal Licensing System and Coast Guard Vessel Documentation Center.

Last reported at 2014-Oct-21 13:33 UTC. Time now 2014-Oct-21 13:43 UTC.
Position N 47°35' W 122°22'.

Length 18 m.

Type: Tug. MMSI: 366800090.

Date/timePositionNaut miles runAvg speedWind from/ knotsBaromVisibWave heightAir tempDewpointWater temp
2014-Oct-21 13:33N 47°35' W 122°22'0 7.0
2014-Oct-21 13:31N 47°35' W 122°22'1 0.6
2014-Oct-21 12:33N 47°35' W 122°22'0 1.0
2014-Oct-21 12:30N 47°35' W 122°22'6 6.0
2014-Oct-21 11:33N 47°40' W 122°26'0 7.6
2014-Oct-21 11:30N 47°40' W 122°26'3 2.8
2014-Oct-21 10:33N 47°39' W 122°22'0 4.3
2014-Oct-21 10:30N 47°39' W 122°22'5 4.8
2014-Oct-21 09:33N 47°39' W 122°15'1 8.1
2014-Oct-21 09:29N 47°40' W 122°15'5 5.0
2014-Oct-21 08:33N 47°44' W 122°16'1 0.9
2014-Oct-21 07:49N 47°45' W 122°16'1 2.1
2014-Oct-21 07:31N 47°45' W 122°16'1 1.2
2014-Oct-21 06:49N 47°45' W 122°16'0 0.8
2014-Oct-21 06:32N 47°45' W 122°16'2 4.6
2014-Oct-21 05:59N 47°43' W 122°16'0 6.9
2014-Oct-21 05:55N 47°42' W 122°15'2 6.1
2014-Oct-21 05:31N 47°40' W 122°15'4 4.3
2014-Oct-21 04:33N 47°39' W 122°21'0 3.7
2014-Oct-21 04:30N 47°39' W 122°21'2 2.0
2014-Oct-21 03:34N 47°40' W 122°24'0 1.3
2014-Oct-21 03:29N 47°40' W 122°24'3 3.4
2014-Oct-21 02:34N 47°38' W 122°28'0 7.0
2014-Oct-21 02:29N 47°38' W 122°28'7 7.5
2014-Oct-21 01:33N 47°31' W 122°29'0 7.8
2014-Oct-21 01:30N 47°30' W 122°29'7 7.7
2014-Oct-21 00:33N 47°24' W 122°32'1 7.4
2014-Oct-21 00:29N 47°23' W 122°32'7 7.3
2014-Oct-20 23:33N 47°16' W 122°33'7 6.8
2014-Oct-20 22:33N 47°10' W 122°38'2 6.5
2014-Oct-20 22:12N 47°08' W 122°39'0 0.3
2014-Oct-20 21:33N 47°08' W 122°39'0 0.0
2014-Oct-20 21:05N 47°08' W 122°39'0 0.0
2014-Oct-20 20:33N 47°08' W 122°39'0 0.0
2014-Oct-20 19:33N 47°08' W 122°39'0 0.1
2014-Oct-20 18:33N 47°08' W 122°39'1 0.6
2014-Oct-20 17:33N 47°09' W 122°38'0 0.0
2014-Oct-20 16:33N 47°09' W 122°38'0 0.0
2014-Oct-20 15:33N 47°09' W 122°38'4 4.2
2014-Oct-20 14:29N 47°13' W 122°36'5 5.8
2014-Oct-20 13:33N 47°18' W 122°33'7 7.0
2014-Oct-20 12:33N 47°25' W 122°32'7 7.5
2014-Oct-20 11:33N 47°32' W 122°29'8 7.5
2014-Oct-20 10:33N 47°39' W 122°28'3 3.4
2014-Oct-20 09:33N 47°40' W 122°23'4 4.3
2014-Oct-20 08:33N 47°39' W 122°16'2 7.9
2014-Oct-20 08:16N 47°41' W 122°14'4 5.5
2014-Oct-20 07:33N 47°44' W 122°16'1 2.8
2014-Oct-20 07:09N 47°45' W 122°15'  
2014-Oct-18 02:16N 47°45' W 122°15'1 1.0
2014-Oct-18 01:36N 47°45' W 122°16'0 8.8
2014-Oct-18 01:33N 47°45' W 122°16'0 0.1
2014-Oct-18 01:16N 47°45' W 122°16'1 0.8
2014-Oct-18 00:33N 47°44' W 122°16'1 6.8
2014-Oct-18 00:21N 47°43' W 122°16'4 4.9
2014-Oct-17 23:32N 47°39' W 122°18'1 3.5
2014-Oct-17 23:11N 47°39' W 122°19'2 3.8
2014-Oct-17 22:33N 47°40' W 122°23'0 4.6
2014-Oct-17 22:32N 47°40' W 122°23'3 3.0
2014-Oct-17 21:33N 47°39' W 122°27'0 6.5
2014-Oct-17 21:31N 47°38' W 122°27'7 7.1
2014-Oct-17 20:33N 47°32' W 122°29'0 6.5
2014-Oct-17 20:31N 47°31' W 122°29'7 6.8
2014-Oct-17 19:33N 47°25' W 122°31'2 7.1
2014-Oct-17 19:21N 47°24' W 122°32'5 6.3
2014-Oct-17 18:33N 47°19' W 122°33'5 4.9
2014-Oct-17 17:33N 47°14' W 122°34'6 6.4
2014-Oct-17 16:33N 47°08' W 122°39'0 0.9
2014-Oct-17 16:05N 47°08' W 122°39'0 0.0
2014-Oct-17 15:33N 47°08' W 122°39'0 0.0
2014-Oct-17 14:30N 47°08' W 122°39'0 0.4
2014-Oct-17 13:31N 47°08' W 122°39'5 5.1
2014-Oct-17 12:33N 47°13' W 122°35'6 6.1
2014-Oct-17 11:33N 47°19' W 122°34'7 7.3
2014-Oct-17 10:33N 47°26' W 122°31'8 7.6
2014-Oct-17 09:33N 47°33' W 122°28'1 7.8
2014-Oct-17 09:24N 47°35' W 122°28'6 7.5
2014-Oct-17 08:33N 47°41' W 122°26'0 7.6
2014-Oct-17 08:29N 47°41' W 122°25'3 2.8
2014-Oct-17 07:31N 47°39' W 122°22'2 3.2
2014-Oct-17 07:02N 47°39' W 122°19'2 5.1
2014-Oct-17 06:33N 47°39' W 122°16'1 7.3
2014-Oct-17 06:27N 47°40' W 122°15'5 5.9
2014-Oct-17 05:33N 47°45' W 122°16'0 0.0
2014-Oct-17 04:32N 47°45' W 122°16'1 0.9
2014-Oct-17 03:54N 47°45' W 122°15'1 1.8
2014-Oct-17 03:33N 47°45' W 122°16'2 5.3
2014-Oct-17 03:09N 47°43' W 122°16'3 5.6
2014-Oct-17 02:31N 47°39' W 122°15'3 3.6
2014-Oct-17 01:34N 47°39' W 122°21'0 6.1
2014-Oct-17 01:33N 47°39' W 122°21'0 5.3
2014-Oct-17 01:29N 47°39' W 122°21'2 1.7
2014-Oct-17 00:33N 47°40' W 122°23'0 0.0
2014-Oct-17 00:29N 47°40' W 122°23'0 0.5
2014-Oct-16 23:33N 47°40' W 122°24'0 0.1
2014-Oct-16 23:29N 47°40' W 122°24'2 2.5
2014-Oct-16 22:33N 47°39' W 122°27'1 7.2
2014-Oct-16 22:29N 47°39' W 122°27'7 7.2
2014-Oct-16 21:33N 47°32' W 122°28'0 7.8
2014-Oct-16 21:33N 47°32' W 122°28'7 7.2
2014-Oct-16 20:33N 47°25' W 122°31'3 7.3
2014-Oct-16 20:08N 47°22' W 122°32'4 6.4
2014-Oct-16 19:33N 47°18' W 122°33'2 5.2
2014-Oct-16 19:13N 47°17' W 122°33'4 5.4
2014-Oct-16 18:33N 47°13' W 122°35'6 6.1
2014-Oct-16 17:33N 47°08' W 122°39'0 0.2
2014-Oct-16 16:31N 47°08' W 122°39'0 0.0
2014-Oct-16 15:32N 47°08' W 122°39'0 0.0
2014-Oct-16 14:33N 47°08' W 122°39'0 0.3
2014-Oct-16 13:33N 47°08' W 122°39'5 5.2
2014-Oct-16 12:33N 47°13' W 122°35'7 6.5
2014-Oct-16 11:33N 47°19' W 122°34'7 7.2
2014-Oct-16 10:33N 47°26' W 122°31'6 7.3
2014-Oct-16 09:42N 47°32' W 122°28'1 7.6
2014-Oct-16 09:33N 47°33' W 122°28'1 7.7
2014-Oct-16 09:22N 47°35' W 122°28'6 6.8
2014-Oct-16 08:33N 47°40' W 122°27'0 9.1
2014-Oct-16 08:32N 47°40' W 122°27'3 3.3
2014-Oct-16 07:33N 47°39' W 122°22'0 4.2
2014-Oct-16 07:32N 47°39' W 122°22'4 4.3
2014-Oct-16 06:33N 47°39' W 122°16'1 7.5
2014-Oct-16 06:27N 47°40' W 122°15'5 6.1
2014-Oct-16 05:33N 47°45' W 122°16'1 1.8
2014-Oct-16 05:16N 47°45' W 122°15'0 0.1
2014-Oct-16 04:33N 47°45' W 122°15'0 0.4
2014-Oct-16 03:33N 47°45' W 122°16'3 3.0
2014-Oct-16 02:33N 47°42' W 122°15'0 6.7
2014-Oct-16 02:32N 47°42' W 122°15'4 3.8
2014-Oct-16 01:30N 47°39' W 122°19'0 3.7
2014-Oct-16 01:26N 47°39' W 122°20'2 1.8
2014-Oct-16 00:33N 47°39' W 122°22'0 2.1
2014-Oct-16 00:26N 47°39' W 122°22'1 1.1
2014-Oct-15 23:33N 47°40' W 122°24'0 0.0
2014-Oct-15 23:31N 47°40' W 122°24'0 0.2
2014-Oct-15 22:33N 47°40' W 122°24'0 0.0
2014-Oct-15 22:31N 47°40' W 122°24'2 2.5
2014-Oct-15 21:33N 47°38' W 122°27'0 6.9
2014-Oct-15 21:31N 47°38' W 122°27'7 6.8
2014-Oct-15 20:33N 47°32' W 122°28'0 7.5
2014-Oct-15 20:31N 47°31' W 122°29'7 7.3
2014-Oct-15 19:33N 47°25' W 122°32'3 7.4
2014-Oct-15 19:10N 47°22' W 122°32'4 6.2
2014-Oct-15 18:33N 47°18' W 122°33'1 4.7
2014-Oct-15 18:20N 47°17' W 122°32'4 5.0
2014-Oct-15 17:33N 47°14' W 122°35'6 6.1
2014-Oct-15 16:33N 47°08' W 122°39'0 0.3
2014-Oct-15 15:31N 47°08' W 122°39'0 0.0
2014-Oct-15 14:33N 47°08' W 122°39'3 3.1
2014-Oct-15 13:30N 47°11' W 122°37'7 7.8
2014-Oct-15 12:33N 47°18' W 122°33'7 6.6
2014-Oct-15 11:33N 47°25' W 122°32'3 6.8
2014-Oct-15 11:05N 47°28' W 122°31'4 6.8
2014-Oct-15 10:33N 47°31' W 122°29'7 7.1
2014-Oct-15 09:33N 47°38' W 122°28'3 3.4
2014-Oct-15 08:33N 47°40' W 122°24'3 3.0
2014-Oct-15 07:33N 47°39' W 122°20'0 3.3
2014-Oct-15 07:28N 47°39' W 122°19'4 4.4
2014-Oct-15 06:34N 47°42' W 122°15'0 7.4
2014-Oct-15 06:33N 47°42' W 122°15'3 4.6
2014-Oct-15 05:53N 47°45' W 122°16'0 0.5
2014-Oct-15 05:28N 47°45' W 122°15'0 0.0
2014-Oct-15 04:31N 47°45' W 122°15'0 0.3
2014-Oct-15 04:18N 47°45' W 122°15'0 0.1
2014-Oct-15 03:33N 47°45' W 122°15'3 3.4
2014-Oct-15 02:38N 47°42' W 122°16'0 6.5
2014-Oct-15 02:33N 47°42' W 122°15'0 9.1
2014-Oct-15 02:33N 47°42' W 122°15'4 3.6
2014-Oct-15 01:26N 47°39' W 122°19'0 3.1
2014-Oct-15 01:18N 47°39' W 122°20'2 2.2
2014-Oct-15 00:33N 47°39' W 122°22'0 2.7
2014-Oct-15 00:33N 47°39' W 122°22'1 1.3
2014-Oct-14 23:33N 47°40' W 122°24'0 3.7
2014-Oct-14 23:33N 47°40' W 122°24'1 1.5
2014-Oct-14 22:33N 47°40' W 122°26'6 5.6
2014-Oct-14 21:33N 47°35' W 122°27'4 6.7
2014-Oct-14 20:58N 47°31' W 122°29'3 7.4
2014-Oct-14 20:33N 47°28' W 122°31'1 7.2
2014-Oct-14 20:23N 47°27' W 122°31'6 7.0
2014-Oct-14 19:33N 47°21' W 122°32'7 6.8
2014-Oct-14 18:33N 47°15' W 122°34'7 6.6
2014-Oct-14 17:33N 47°09' W 122°39'1 0.8
2014-Oct-14 16:33N 47°08' W 122°39'0 0.0
2014-Oct-14 15:33N 47°08' W 122°39'0 0.0
2014-Oct-14 14:32N 47°08' W 122°39'1 0.5
2014-Oct-14 13:23N 47°09' W 122°39'4 4.4
2014-Oct-14 12:25N 47°12' W 122°36'6 7.5
2014-Oct-14 11:33N 47°19' W 122°33'7 6.9
2014-Oct-14 10:33N 47°25' W 122°32'2 7.1
2014-Oct-14 10:19N 47°27' W 122°31'5 7.0
2014-Oct-14 09:33N 47°32' W 122°29'1 7.9
2014-Oct-14 09:29N 47°33' W 122°28'7 7.6
2014-Oct-14 08:33N 47°40' W 122°28'1 7.0
2014-Oct-14 08:29N 47°40' W 122°28'3 3.2
2014-Oct-14 07:33N 47°40' W 122°23'0 3.8
2014-Oct-14 07:29N 47°40' W 122°23'4 4.1
2014-Oct-14 06:33N 47°39' W 122°17'0 6.5
2014-Oct-14 06:29N 47°39' W 122°17'3 5.8
2014-Oct-14 05:53N 47°42' W 122°15'2 7.6
2014-Oct-14 05:33N 47°45' W 122°16'1 1.1
2014-Oct-14 04:31N 47°45' W 122°15'1 0.6
2014-Oct-14 03:33N 47°45' W 122°16'2 2.4
2014-Oct-14 02:33N 47°43' W 122°16'4 4.1
2014-Oct-14 01:31N 47°39' W 122°19'0 3.7
2014-Oct-14 01:23N 47°39' W 122°20'3 3.6
2014-Oct-14 00:33N 47°40' W 122°24'0 0.0
2014-Oct-14 00:33N 47°40' W 122°24'1 1.4
2014-Oct-13 23:33N 47°41' W 122°26'0 0.0
2014-Oct-13 23:33N 47°41' W 122°26'3 2.5
2014-Oct-13 22:33N 47°38' W 122°27'1 5.7
2014-Oct-13 22:21N 47°37' W 122°27'5 6.3
2014-Oct-13 21:33N 47°32' W 122°28'0 7.4
2014-Oct-13 21:31N 47°32' W 122°28'7 7.8
2014-Oct-13 20:34N 47°25' W 122°32'1 7.1
2014-Oct-13 20:26N 47°24' W 122°32'7 7.7
2014-Oct-13 19:33N 47°17' W 122°32'8 7.9
2014-Oct-13 18:33N 47°10' W 122°38'2 2.2
2014-Oct-13 17:33N 47°08' W 122°39'0 0.0
2014-Oct-13 16:33N 47°08' W 122°39'0 0.0
2014-Oct-13 15:33N 47°08' W 122°39'6 6.0
2014-Oct-13 14:33N 47°13' W 122°35'9 9.3
2014-Oct-13 13:33N 47°22' W 122°32'5 7.0
2014-Oct-13 12:53N 47°27' W 122°31'3 7.6
2014-Oct-13 12:33N 47°30' W 122°30'4 7.8
2014-Oct-13 12:04N 47°33' W 122°28'4 8.0
2014-Oct-13 11:33N 47°37' W 122°28'1 7.6
2014-Oct-13 11:29N 47°38' W 122°28'4 3.8
2014-Oct-13 10:33N 47°40' W 122°24'0 0.6
2014-Oct-13 10:24N 47°40' W 122°24'3 3.7
2014-Oct-13 09:32N 47°39' W 122°19'5 5.0
2014-Oct-13 08:33N 47°43' W 122°16'2 0.7
2014-Oct-13 05:27N 47°45' W 122°15'0 0.0
2014-Oct-11 23:31N 47°45' W 122°16'0 0.9
2014-Oct-11 23:00N 47°45' W 122°15'1 2.5
2014-Oct-11 22:33N 47°44' W 122°16'2 3.5
2014-Oct-11 21:55N 47°42' W 122°16'2 6.3
2014-Oct-11 21:33N 47°40' W 122°15'0 6.5
2014-Oct-11 21:30N 47°40' W 122°15'4 4.4
2014-Oct-11 20:33N 47°39' W 122°21'0 4.8
2014-Oct-11 20:30N 47°39' W 122°21'3 2.9
2014-Oct-11 19:34N 47°41' W 122°25'0 4.6
2014-Oct-11 19:30N 47°41' W 122°25'6 6.8
2014-Oct-11 18:33N 47°34' W 122°26'1 7.6
2014-Oct-11 18:29N 47°34' W 122°27'8 8.3
2014-Oct-11 17:33N 47°27' W 122°31'1 8.2
2014-Oct-11 17:24N 47°26' W 122°31'7 8.0
2014-Oct-11 16:33N 47°19' W 122°33'7 7.4
2014-Oct-11 15:33N 47°12' W 122°36'  
Track history (hours):
 
Tides and Currents Weather Stations Pressure Air Temp Water Temp Dewpoint Dewpoint Depression Visibility Wind Speed Wind Dir Waves Ship Positions

Island Breeze

Owner: Island Tug & Barge Co., Seattle, WA. More information available from US FCC via Universal Licensing System and Coast Guard Vessel Documentation Center.

Last reported at 2014-Oct-21 13:33 UTC. Time now 2014-Oct-21 13:43 UTC.
Position N 47°35' W 122°22'.

Length 18 m.

Type: Tug. MMSI: 366800090.

Date/timePositionNaut miles runAvg speedWind from/ knotsBaromVisibWave heightAir tempDewpointWater temp
2014-Oct-21 13:33N 47°35' W 122°22'0 7.0
2014-Oct-21 13:31N 47°35' W 122°22'1 0.6
2014-Oct-21 12:33N 47°35' W 122°22'0 1.0
2014-Oct-21 12:30N 47°35' W 122°22'6 6.0
2014-Oct-21 11:33N 47°40' W 122°26'0 7.6
2014-Oct-21 11:30N 47°40' W 122°26'3 2.8
2014-Oct-21 10:33N 47°39' W 122°22'0 4.3
2014-Oct-21 10:30N 47°39' W 122°22'5 4.8
2014-Oct-21 09:33N 47°39' W 122°15'1 8.1
2014-Oct-21 09:29N 47°40' W 122°15'5 5.0
2014-Oct-21 08:33N 47°44' W 122°16'1 0.9
2014-Oct-21 07:49N 47°45' W 122°16'1 2.1
2014-Oct-21 07:31N 47°45' W 122°16'1 1.2
2014-Oct-21 06:49N 47°45' W 122°16'0 0.8
2014-Oct-21 06:32N 47°45' W 122°16'2 4.6
2014-Oct-21 05:59N 47°43' W 122°16'0 6.9
2014-Oct-21 05:55N 47°42' W 122°15'2 6.1
2014-Oct-21 05:31N 47°40' W 122°15'4 4.3
2014-Oct-21 04:33N 47°39' W 122°21'0 3.7
2014-Oct-21 04:30N 47°39' W 122°21'2 2.0
2014-Oct-21 03:34N 47°40' W 122°24'0 1.3
2014-Oct-21 03:29N 47°40' W 122°24'3 3.4
2014-Oct-21 02:34N 47°38' W 122°28'0 7.0
2014-Oct-21 02:29N 47°38' W 122°28'7 7.5
2014-Oct-21 01:33N 47°31' W 122°29'0 7.8
2014-Oct-21 01:30N 47°30' W 122°29'7 7.7
2014-Oct-21 00:33N 47°24' W 122°32'1 7.4
2014-Oct-21 00:29N 47°23' W 122°32'7 7.3
2014-Oct-20 23:33N 47°16' W 122°33'7 6.8
2014-Oct-20 22:33N 47°10' W 122°38'2 6.5
2014-Oct-20 22:12N 47°08' W 122°39'0 0.3
2014-Oct-20 21:33N 47°08' W 122°39'0 0.0
2014-Oct-20 21:05N 47°08' W 122°39'0 0.0
2014-Oct-20 20:33N 47°08' W 122°39'0 0.0
2014-Oct-20 19:33N 47°08' W 122°39'0 0.1
2014-Oct-20 18:33N 47°08' W 122°39'1 0.6
2014-Oct-20 17:33N 47°09' W 122°38'0 0.0
2014-Oct-20 16:33N 47°09' W 122°38'0 0.0
2014-Oct-20 15:33N 47°09' W 122°38'4 4.2
2014-Oct-20 14:29N 47°13' W 122°36'5 5.8
2014-Oct-20 13:33N 47°18' W 122°33'7 7.0
2014-Oct-20 12:33N 47°25' W 122°32'7 7.5
2014-Oct-20 11:33N 47°32' W 122°29'8 7.5
2014-Oct-20 10:33N 47°39' W 122°28'3 3.4
2014-Oct-20 09:33N 47°40' W 122°23'4 4.3
2014-Oct-20 08:33N 47°39' W 122°16'2 7.9
2014-Oct-20 08:16N 47°41' W 122°14'4 5.5
2014-Oct-20 07:33N 47°44' W 122°16'1 2.8
2014-Oct-20 07:09N 47°45' W 122°15'  
2014-Oct-18 02:16N 47°45' W 122°15'1 1.0
2014-Oct-18 01:36N 47°45' W 122°16'0 8.8
2014-Oct-18 01:33N 47°45' W 122°16'0 0.1
2014-Oct-18 01:16N 47°45' W 122°16'1 0.8
2014-Oct-18 00:33N 47°44' W 122°16'1 6.8
2014-Oct-18 00:21N 47°43' W 122°16'4 4.9
2014-Oct-17 23:32N 47°39' W 122°18'1 3.5
2014-Oct-17 23:11N 47°39' W 122°19'2 3.8
2014-Oct-17 22:33N 47°40' W 122°23'0 4.6
2014-Oct-17 22:32N 47°40' W 122°23'3 3.0
2014-Oct-17 21:33N 47°39' W 122°27'0 6.5
2014-Oct-17 21:31N 47°38' W 122°27'7 7.1
2014-Oct-17 20:33N 47°32' W 122°29'0 6.5
2014-Oct-17 20:31N 47°31' W 122°29'7 6.8
2014-Oct-17 19:33N 47°25' W 122°31'2 7.1
2014-Oct-17 19:21N 47°24' W 122°32'5 6.3
2014-Oct-17 18:33N 47°19' W 122°33'5 4.9
2014-Oct-17 17:33N 47°14' W 122°34'6 6.4
2014-Oct-17 16:33N 47°08' W 122°39'0 0.9
2014-Oct-17 16:05N 47°08' W 122°39'0 0.0
2014-Oct-17 15:33N 47°08' W 122°39'0 0.0
2014-Oct-17 14:30N 47°08' W 122°39'0 0.4
2014-Oct-17 13:31N 47°08' W 122°39'5 5.1
2014-Oct-17 12:33N 47°13' W 122°35'6 6.1
2014-Oct-17 11:33N 47°19' W 122°34'7 7.3
2014-Oct-17 10:33N 47°26' W 122°31'8 7.6
2014-Oct-17 09:33N 47°33' W 122°28'1 7.8
2014-Oct-17 09:24N 47°35' W 122°28'6 7.5
2014-Oct-17 08:33N 47°41' W 122°26'0 7.6
2014-Oct-17 08:29N 47°41' W 122°25'3 2.8
2014-Oct-17 07:31N 47°39' W 122°22'2 3.2
2014-Oct-17 07:02N 47°39' W 122°19'2 5.1
2014-Oct-17 06:33N 47°39' W 122°16'1 7.3
2014-Oct-17 06:27N 47°40' W 122°15'5 5.9
2014-Oct-17 05:33N 47°45' W 122°16'0 0.0
2014-Oct-17 04:32N 47°45' W 122°16'1 0.9
2014-Oct-17 03:54N 47°45' W 122°15'1 1.8
2014-Oct-17 03:33N 47°45' W 122°16'2 5.3
2014-Oct-17 03:09N 47°43' W 122°16'3 5.6
2014-Oct-17 02:31N 47°39' W 122°15'3 3.6
2014-Oct-17 01:34N 47°39' W 122°21'0 6.1
2014-Oct-17 01:33N 47°39' W 122°21'0 5.3
2014-Oct-17 01:29N 47°39' W 122°21'2 1.7
2014-Oct-17 00:33N 47°40' W 122°23'0 0.0
2014-Oct-17 00:29N 47°40' W 122°23'0 0.5
2014-Oct-16 23:33N 47°40' W 122°24'0 0.1
2014-Oct-16 23:29N 47°40' W 122°24'2 2.5
2014-Oct-16 22:33N 47°39' W 122°27'1 7.2
2014-Oct-16 22:29N 47°39' W 122°27'7 7.2
2014-Oct-16 21:33N 47°32' W 122°28'0 7.8
2014-Oct-16 21:33N 47°32' W 122°28'7 7.2
2014-Oct-16 20:33N 47°25' W 122°31'3 7.3
2014-Oct-16 20:08N 47°22' W 122°32'4 6.4
2014-Oct-16 19:33N 47°18' W 122°33'2 5.2
2014-Oct-16 19:13N 47°17' W 122°33'4 5.4
2014-Oct-16 18:33N 47°13' W 122°35'6 6.1
2014-Oct-16 17:33N 47°08' W 122°39'0 0.2
2014-Oct-16 16:31N 47°08' W 122°39'0 0.0
2014-Oct-16 15:32N 47°08' W 122°39'0 0.0
2014-Oct-16 14:33N 47°08' W 122°39'0 0.3
2014-Oct-16 13:33N 47°08' W 122°39'5 5.2
2014-Oct-16 12:33N 47°13' W 122°35'7 6.5
2014-Oct-16 11:33N 47°19' W 122°34'7 7.2
2014-Oct-16 10:33N 47°26' W 122°31'6 7.3
2014-Oct-16 09:42N 47°32' W 122°28'1 7.6
2014-Oct-16 09:33N 47°33' W 122°28'1 7.7
2014-Oct-16 09:22N 47°35' W 122°28'6 6.8
2014-Oct-16 08:33N 47°40' W 122°27'0 9.1
2014-Oct-16 08:32N 47°40' W 122°27'3 3.3
2014-Oct-16 07:33N 47°39' W 122°22'0 4.2
2014-Oct-16 07:32N 47°39' W 122°22'4 4.3
2014-Oct-16 06:33N 47°39' W 122°16'1 7.5
2014-Oct-16 06:27N 47°40' W 122°15'5 6.1
2014-Oct-16 05:33N 47°45' W 122°16'1 1.8
2014-Oct-16 05:16N 47°45' W 122°15'0 0.1
2014-Oct-16 04:33N 47°45' W 122°15'0 0.4
2014-Oct-16 03:33N 47°45' W 122°16'3 3.0
2014-Oct-16 02:33N 47°42' W 122°15'0 6.7
2014-Oct-16 02:32N 47°42' W 122°15'4 3.8
2014-Oct-16 01:30N 47°39' W 122°19'0 3.7
2014-Oct-16 01:26N 47°39' W 122°20'2 1.8
2014-Oct-16 00:33N 47°39' W 122°22'0 2.1
2014-Oct-16 00:26N 47°39' W 122°22'1 1.1
2014-Oct-15 23:33N 47°40' W 122°24'0 0.0
2014-Oct-15 23:31N 47°40' W 122°24'0 0.2
2014-Oct-15 22:33N 47°40' W 122°24'0 0.0
2014-Oct-15 22:31N 47°40' W 122°24'2 2.5
2014-Oct-15 21:33N 47°38' W 122°27'0 6.9
2014-Oct-15 21:31N 47°38' W 122°27'7 6.8
2014-Oct-15 20:33N 47°32' W 122°28'0 7.5
2014-Oct-15 20:31N 47°31' W 122°29'7 7.3
2014-Oct-15 19:33N 47°25' W 122°32'3 7.4
2014-Oct-15 19:10N 47°22' W 122°32'4 6.2
2014-Oct-15 18:33N 47°18' W 122°33'1 4.7
2014-Oct-15 18:20N 47°17' W 122°32'4 5.0
2014-Oct-15 17:33N 47°14' W 122°35'6 6.1
2014-Oct-15 16:33N 47°08' W 122°39'0 0.3
2014-Oct-15 15:31N 47°08' W 122°39'0 0.0
2014-Oct-15 14:33N 47°08' W 122°39'3 3.1
2014-Oct-15 13:30N 47°11' W 122°37'7 7.8
2014-Oct-15 12:33N 47°18' W 122°33'7 6.6
2014-Oct-15 11:33N 47°25' W 122°32'3 6.8
2014-Oct-15 11:05N 47°28' W 122°31'4 6.8
2014-Oct-15 10:33N 47°31' W 122°29'7 7.1
2014-Oct-15 09:33N 47°38' W 122°28'3 3.4
2014-Oct-15 08:33N 47°40' W 122°24'3 3.0
2014-Oct-15 07:33N 47°39' W 122°20'0 3.3
2014-Oct-15 07:28N 47°39' W 122°19'4 4.4
2014-Oct-15 06:34N 47°42' W 122°15'0 7.4
2014-Oct-15 06:33N 47°42' W 122°15'3 4.6
2014-Oct-15 05:53N 47°45' W 122°16'0 0.5
2014-Oct-15 05:28N 47°45' W 122°15'0 0.0
2014-Oct-15 04:31N 47°45' W 122°15'0 0.3
2014-Oct-15 04:18N 47°45' W 122°15'0 0.1
2014-Oct-15 03:33N 47°45' W 122°15'3 3.4
2014-Oct-15 02:38N 47°42' W 122°16'0 6.5
2014-Oct-15 02:33N 47°42' W 122°15'0 9.1
2014-Oct-15 02:33N 47°42' W 122°15'4 3.6
2014-Oct-15 01:26N 47°39' W 122°19'0 3.1
2014-Oct-15 01:18N 47°39' W 122°20'2 2.2
2014-Oct-15 00:33N 47°39' W 122°22'0 2.7
2014-Oct-15 00:33N 47°39' W 122°22'1 1.3
2014-Oct-14 23:33N 47°40' W 122°24'0 3.7
2014-Oct-14 23:33N 47°40' W 122°24'1 1.5
2014-Oct-14 22:33N 47°40' W 122°26'6 5.6
2014-Oct-14 21:33N 47°35' W 122°27'4 6.7
2014-Oct-14 20:58N 47°31' W 122°29'3 7.4
2014-Oct-14 20:33N 47°28' W 122°31'1 7.2
2014-Oct-14 20:23N 47°27' W 122°31'6 7.0
2014-Oct-14 19:33N 47°21' W 122°32'7 6.8
2014-Oct-14 18:33N 47°15' W 122°34'7 6.6
2014-Oct-14 17:33N 47°09' W 122°39'1 0.8
2014-Oct-14 16:33N 47°08' W 122°39'0 0.0
2014-Oct-14 15:33N 47°08' W 122°39'0 0.0
2014-Oct-14 14:32N 47°08' W 122°39'1 0.5
2014-Oct-14 13:23N 47°09' W 122°39'4 4.4
2014-Oct-14 12:25N 47°12' W 122°36'6 7.5
2014-Oct-14 11:33N 47°19' W 122°33'7 6.9
2014-Oct-14 10:33N 47°25' W 122°32'2 7.1
2014-Oct-14 10:19N 47°27' W 122°31'5 7.0
2014-Oct-14 09:33N 47°32' W 122°29'1 7.9
2014-Oct-14 09:29N 47°33' W 122°28'7 7.6
2014-Oct-14 08:33N 47°40' W 122°28'1 7.0
2014-Oct-14 08:29N 47°40' W 122°28'3 3.2
2014-Oct-14 07:33N 47°40' W 122°23'0 3.8
2014-Oct-14 07:29N 47°40' W 122°23'4 4.1
2014-Oct-14 06:33N 47°39' W 122°17'0 6.5
2014-Oct-14 06:29N 47°39' W 122°17'3 5.8
2014-Oct-14 05:53N 47°42' W 122°15'2 7.6
2014-Oct-14 05:33N 47°45' W 122°16'1 1.1
2014-Oct-14 04:31N 47°45' W 122°15'1 0.6
2014-Oct-14 03:33N 47°45' W 122°16'2 2.4
2014-Oct-14 02:33N 47°43' W 122°16'4 4.1
2014-Oct-14 01:31N 47°39' W 122°19'0 3.7
2014-Oct-14 01:23N 47°39' W 122°20'3 3.6
2014-Oct-14 00:33N 47°40' W 122°24'0 0.0
2014-Oct-14 00:33N 47°40' W 122°24'1 1.4
2014-Oct-13 23:33N 47°41' W 122°26'0 0.0
2014-Oct-13 23:33N 47°41' W 122°26'3 2.5
2014-Oct-13 22:33N 47°38' W 122°27'1 5.7
2014-Oct-13 22:21N 47°37' W 122°27'5 6.3
2014-Oct-13 21:33N 47°32' W 122°28'0 7.4
2014-Oct-13 21:31N 47°32' W 122°28'7 7.8
2014-Oct-13 20:34N 47°25' W 122°32'1 7.1
2014-Oct-13 20:26N 47°24' W 122°32'7 7.7
2014-Oct-13 19:33N 47°17' W 122°32'8 7.9
2014-Oct-13 18:33N 47°10' W 122°38'2 2.2
2014-Oct-13 17:33N 47°08' W 122°39'0 0.0
2014-Oct-13 16:33N 47°08' W 122°39'0 0.0
2014-Oct-13 15:33N 47°08' W 122°39'6 6.0
2014-Oct-13 14:33N 47°13' W 122°35'9 9.3
2014-Oct-13 13:33N 47°22' W 122°32'5 7.0
2014-Oct-13 12:53N 47°27' W 122°31'3 7.6
2014-Oct-13 12:33N 47°30' W 122°30'4 7.8
2014-Oct-13 12:04N 47°33' W 122°28'4 8.0
2014-Oct-13 11:33N 47°37' W 122°28'1 7.6
2014-Oct-13 11:29N 47°38' W 122°28'4 3.8
2014-Oct-13 10:33N 47°40' W 122°24'0 0.6
2014-Oct-13 10:24N 47°40' W 122°24'3 3.7
2014-Oct-13 09:32N 47°39' W 122°19'5 5.0
2014-Oct-13 08:33N 47°43' W 122°16'2 0.7
2014-Oct-13 05:27N 47°45' W 122°15'0 0.0
2014-Oct-11 23:31N 47°45' W 122°16'0 0.9
2014-Oct-11 23:00N 47°45' W 122°15'1 2.5
2014-Oct-11 22:33N 47°44' W 122°16'2 3.5
2014-Oct-11 21:55N 47°42' W 122°16'2 6.3
2014-Oct-11 21:33N 47°40' W 122°15'0 6.5
2014-Oct-11 21:30N 47°40' W 122°15'4 4.4
2014-Oct-11 20:33N 47°39' W 122°21'0 4.8
2014-Oct-11 20:30N 47°39' W 122°21'3 2.9
2014-Oct-11 19:34N 47°41' W 122°25'0 4.6
2014-Oct-11 19:30N 47°41' W 122°25'6 6.8
2014-Oct-11 18:33N 47°34' W 122°26'1 7.6
2014-Oct-11 18:29N 47°34' W 122°27'8 8.3
2014-Oct-11 17:33N 47°27' W 122°31'1 8.2
2014-Oct-11 17:24N 47°26' W 122°31'7 8.0
2014-Oct-11 16:33N 47°19' W 122°33'7 7.4
2014-Oct-11 15:33N 47°12' W 122°36'  

Dump ship's entire track history